Time;durP1;ratioP1;P1;durP2;ratioP2;P2;SDS_P1;SDS_P2;PMS_P1;PMS_P2;Temp;Humidity;BMP_temperature;BMP_pressure;BME280_temperature;BME280_humidity;BME280_pressure;Samples;Min_cycle;Max_cycle;Signal;HPM_P1;HPM_P2
2022/12/04 00:01:26;;;;;;;695.08;69.13;;;2.20;99.90;;;;;;5030215;28;20013;-51
2022/12/04 00:03:58;;;;;;;566.58;56.08;;;2.20;99.90;;;;;;5030377;28;20471;-51
2022/12/04 00:06:25;;;;;;;530.25;53.10;;;2.20;99.90;;;;;;5030364;28;20739;-50
2022/12/04 00:08:51;;;;;;;573.05;60.08;;;2.20;99.90;;;;;;5030137;28;20026;-49
2022/12/04 00:11:22;;;;;;;876.67;82.95;;;2.20;99.90;;;;;;5030164;28;20109;-50
2022/12/04 00:13:48;;;;;;;440.00;53.90;;;2.10;99.90;;;;;;5030319;28;20376;-50
2022/12/04 00:16:19;;;;;;;506.85;50.08;;;2.20;99.90;;;;;;5030406;28;20030;-53
2022/12/04 00:18:45;;;;;;;817.60;66.88;;;2.20;99.90;;;;;;5030218;28;20364;-49
2022/12/04 00:21:13;;;;;;;524.38;52.83;;;2.10;99.90;;;;;;5029999;28;20030;-50
2022/12/04 00:23:40;;;;;;;554.40;51.92;;;2.10;99.90;;;;;;5029829;28;20060;-51
2022/12/04 00:26:29;;;;;;;748.67;64.60;;;2.10;99.90;;;;;;5027856;28;20073;-53
2022/12/04 00:28:58;;;;;;;485.63;48.05;;;2.00;99.90;;;;;;5029016;28;20086;-49
2022/12/04 00:31:26;;;;;;;749.58;60.63;;;2.10;99.90;;;;;;5029650;28;20096;-50
2022/12/04 00:33:52;;;;;;;909.65;69.45;;;2.00;99.90;;;;;;5028926;28;20533;-53
2022/12/04 00:36:21;;;;;;;739.92;64.13;;;2.00;99.90;;;;;;5028906;28;20059;-52
2022/12/04 00:38:47;;;;;;;406.40;50.00;;;2.00;99.90;;;;;;5028259;28;20479;-55
2022/12/04 00:41:15;;;;;;;518.78;52.47;;;2.00;99.90;;;;;;5029185;28;20045;-54
2022/12/04 00:43:41;;;;;;;574.25;53.72;;;2.00;99.90;;;;;;5029749;28;20021;-52
2022/12/04 00:46:08;;;;;;;249.82;37.72;;;2.00;99.90;;;;;;5029519;28;20044;-53
2022/12/04 00:48:34;;;;;;;852.17;74.35;;;2.00;99.90;;;;;;5029671;28;20104;-55
2022/12/04 00:51:09;;;;;;;675.70;57.20;;;2.00;99.90;;;;;;5029312;28;20032;-54
2022/12/04 00:53:35;;;;;;;785.15;60.58;;;2.00;99.90;;;;;;5029503;28;20425;-54
2022/12/04 00:56:22;;;;;;;693.80;57.20;;;2.00;99.90;;;;;;5029459;28;20032;-51
2022/12/04 00:58:52;;;;;;;396.23;43.55;;;2.00;99.90;;;;;;5029509;28;20048;-51
2022/12/04 01:01:19;;;;;;;805.45;68.50;;;2.00;99.90;;;;;;5029621;28;20022;-52
2022/12/04 01:03:45;;;;;;;284.58;42.53;;;2.00;99.90;;;;;;5029288;28;20021;-51
2022/12/04 01:06:27;;;;;;;764.47;61.25;;;2.00;99.90;;;;;;5029282;28;20099;-54
2022/12/04 01:08:54;;;;;;;723.92;63.00;;;2.00;99.90;;;;;;5029237;28;20025;-52
2022/12/04 01:11:21;;;;;;;869.65;72.32;;;2.00;99.90;;;;;;5029235;28;20406;-51
2022/12/04 01:13:47;;;;;;;448.55;47.95;;;2.00;99.90;;;;;;5029337;28;20022;-53
2022/12/04 01:16:26;;;;;;;522.35;48.60;;;2.00;99.90;;;;;;5029282;28;20025;-52
2022/12/04 01:18:52;;;;;;;590.00;52.55;;;2.00;99.90;;;;;;5029138;28;20017;-53
2022/12/04 01:21:18;;;;;;;663.53;50.22;;;2.10;99.90;;;;;;5029153;28;20022;-53
2022/12/04 01:23:44;;;;;;;741.22;64.43;;;2.10;99.90;;;;;;5029168;28;20017;-52
2022/12/04 01:26:10;;;;;;;806.97;59.20;;;2.00;99.90;;;;;;5029053;28;20021;-51
2022/12/04 01:28:36;;;;;;;213.85;35.40;;;2.00;99.90;;;;;;5029181;28;20552;-55
2022/12/04 01:31:13;;;;;;;658.42;57.03;;;2.00;99.90;;;;;;5028892;28;20025;-52
2022/12/04 01:33:40;;;;;;;502.42;45.28;;;1.90;99.90;;;;;;5027601;28;20036;-53
2022/12/04 01:36:10;;;;;;;565.28;52.42;;;2.00;99.90;;;;;;5029045;28;20026;-53
2022/12/04 01:38:36;;;;;;;577.17;52.38;;;1.90;99.90;;;;;;5029070;28;20711;-55
2022/12/04 01:41:02;;;;;;;227.02;37.38;;;1.90;99.90;;;;;;5027571;28;20026;-49
2022/12/04 01:43:30;;;;;;;474.40;46.13;;;2.00;99.90;;;;;;5029035;28;20558;-51
2022/12/04 01:46:00;;;;;;;604.53;51.35;;;1.90;99.90;;;;;;5028752;28;20073;-51
2022/12/04 01:48:29;;;;;;;629.40;54.55;;;1.90;99.90;;;;;;5028958;28;20030;-51
2022/12/04 01:51:09;;;;;;;406.55;44.00;;;1.90;99.90;;;;;;5027335;28;20029;-52
2022/12/04 01:53:38;;;;;;;654.88;56.92;;;1.90;99.90;;;;;;5028631;28;20081;-51
2022/12/04 01:56:05;;;;;;;178.18;31.42;;;1.90;99.90;;;;;;5028662;28;20104;-49
2022/12/04 01:58:36;;;;;;;533.97;50.22;;;1.90;99.90;;;;;;5028857;28;20045;-52
2022/12/04 02:01:04;;;;;;;376.63;42.45;;;1.90;99.90;;;;;;5028660;28;20364;-53
2022/12/04 02:03:30;;;;;;;468.35;39.25;;;1.90;99.90;;;;;;5028799;28;20022;-50
2022/12/04 02:05:56;;;;;;;509.80;47.60;;;1.90;99.90;;;;;;5028463;28;20078;-53
2022/12/04 02:08:23;;;;;;;440.63;44.88;;;1.90;99.90;;;;;;5028676;28;20089;-55
2022/12/04 02:10:54;;;;;;;345.10;41.00;;;1.90;99.90;;;;;;5028333;28;20537;-53
2022/12/04 02:13:30;;;;;;;522.85;47.70;;;1.90;99.90;;;;;;5028574;28;20448;-51
2022/12/04 02:16:26;;;;;;;383.55;39.70;;;1.90;99.90;;;;;;5028444;28;20073;-54
2022/12/04 02:19:10;;;;;;;426.85;41.30;;;1.90;99.90;;;;;;5028443;28;20070;-55
2022/12/04 02:21:39;;;;;;;280.08;34.28;;;1.90;99.90;;;;;;5028387;28;20486;-51
2022/12/04 02:24:20;;;;;;;313.45;39.33;;;1.90;99.90;;;;;;5028272;28;20038;-55
2022/12/04 02:26:55;;;;;;;425.35;43.88;;;1.90;99.90;;;;;;5028515;28;20175;-53
2022/12/04 02:29:27;;;;;;;356.63;40.95;;;1.80;99.90;;;;;;5028394;28;20082;-51
2022/12/04 02:32:10;;;;;;;145.48;33.15;;;1.80;99.90;;;;;;5028115;28;20033;-50
2022/12/04 02:34:45;;;;;;;92.15;31.63;;;1.90;99.90;;;;;;5028273;28;20029;-53
2022/12/04 02:37:18;;;;;;;256.02;38.35;;;1.90;99.90;;;;;;5028196;28;20090;-52
2022/12/04 02:39:55;;;;;;;271.02;36.75;;;1.90;99.90;;;;;;5028055;27;20033;-51
2022/12/04 02:42:26;;;;;;;291.73;38.30;;;1.90;99.90;;;;;;5028258;28;20052;-50
2022/12/04 02:44:56;;;;;;;260.85;38.90;;;1.90;99.90;;;;;;5028083;28;20029;-51
2022/12/04 02:47:23;;;;;;;181.05;36.28;;;1.90;99.90;;;;;;5028081;28;20033;-50
2022/12/04 02:49:56;;;;;;;396.42;43.72;;;1.90;99.90;;;;;;5028040;28;20018;-54
2022/12/04 02:52:27;;;;;;;150.40;34.73;;;1.90;99.90;;;;;;5028008;28;20069;-52
2022/12/04 02:54:58;;;;;;;284.67;40.90;;;2.00;99.90;;;;;;5027907;28;20034;-50
2022/12/04 02:57:30;;;;;;;66.45;31.55;;;2.00;99.90;;;;;;5028100;28;20551;-51
2022/12/04 02:59:58;;;;;;;237.20;33.00;;;2.10;99.90;;;;;;5028010;28;20029;-51
2022/12/04 03:02:33;;;;;;;172.77;33.22;;;2.10;99.90;;;;;;5029425;28;20028;-50
2022/12/04 03:05:04;;;;;;;360.63;39.92;;;2.20;99.90;;;;;;5030041;28;20057;-52
2022/12/04 03:07:41;;;;;;;368.08;43.28;;;2.10;99.90;;;;;;5029842;28;20026;-51
2022/12/04 03:10:12;;;;;;;217.65;33.90;;;2.10;99.90;;;;;;5031116;28;20098;-52
2022/12/04 03:12:44;;;;;;;114.07;29.92;;;2.10;99.90;;;;;;5031012;28;20094;-54
2022/12/04 03:15:30;;;;;;;261.40;34.90;;;2.20;99.90;;;;;;5031072;28;20426;-51
2022/12/04 03:18:16;;;;;;;251.18;36.60;;;2.10;99.90;;;;;;5030845;28;20030;-51
2022/12/04 03:20:45;;;;;;;148.82;31.92;;;2.10;99.90;;;;;;5030721;28;20038;-52
2022/12/04 03:23:15;;;;;;;207.75;34.22;;;2.10;99.90;;;;;;5030766;28;20022;-48
2022/12/04 03:26:14;;;;;;;198.13;33.35;;;2.10;99.90;;;;;;5031062;28;20029;-51
2022/12/04 03:28:51;;;;;;;313.42;39.20;;;2.10;99.90;;;;;;5010776;28;20441;-52
2022/12/04 03:31:23;;;;;;;144.05;34.03;;;2.10;99.90;;;;;;5030981;28;20082;-52
2022/12/04 03:33:51;;;;;;;167.57;31.75;;;2.10;99.90;;;;;;5030817;28;20030;-51
2022/12/04 03:36:46;;;;;;;385.63;41.97;;;2.20;99.90;;;;;;5030823;28;20026;-50
2022/12/04 03:39:23;;;;;;;393.48;41.55;;;2.20;99.90;;;;;;5034903;28;20483;-51
2022/12/04 03:41:52;;;;;;;502.05;47.95;;;2.10;99.90;;;;;;5050460;28;20031;-53
2022/12/04 03:44:30;;;;;;;380.27;41.53;;;2.10;99.90;;;;;;5050720;28;20116;-51
2022/12/04 03:47:07;;;;;;;299.27;37.10;;;2.20;99.90;;;;;;5050297;28;20037;-52
2022/12/04 03:49:49;;;;;;;159.27;34.63;;;2.20;99.90;;;;;;5050439;28;20025;-52
2022/12/04 03:52:23;;;;;;;315.92;37.33;;;2.20;99.90;;;;;;5050467;28;20082;-50
2022/12/04 03:54:56;;;;;;;321.45;38.42;;;2.20;99.90;;;;;;5050380;28;20021;-55
2022/12/04 03:57:29;;;;;;;286.33;36.30;;;2.20;99.90;;;;;;5050248;28;20021;-50
2022/12/04 04:00:05;;;;;;;270.65;39.22;;;2.20;99.90;;;;;;5050261;28;20073;-51
2022/12/04 04:02:40;;;;;;;411.35;46.30;;;2.20;99.90;;;;;;5050375;28;20042;-49
2022/12/04 04:05:08;;;;;;;284.67;36.22;;;2.10;99.90;;;;;;5050217;28;20396;-51
2022/12/04 04:07:45;;;;;;;135.80;32.00;;;2.10;99.90;;;;;;5050324;28;20029;-52
2022/12/04 04:10:15;;;;;;;267.70;35.42;;;2.20;99.90;;;;;;5050181;28;20104;-49
2022/12/04 04:24:12;;;;;;;300.02;40.20;;;2.20;99.90;;;;;;5049788;28;21014;-49
2022/12/04 04:24:14;;;;;;;64.50;29.40;;;2.20;99.90;;;;;;5050211;28;20044;-50
2022/12/04 04:26:44;;;;;;;209.77;33.95;;;2.20;99.90;;;;;;5049956;28;20033;-54
2022/12/04 04:29:10;;;;;;;263.40;37.88;;;2.20;99.90;;;;;;5048484;28;20033;-54
2022/12/04 04:31:44;;;;;;;152.55;32.60;;;2.20;99.90;;;;;;5049849;28;20033;-51
2022/12/04 04:34:28;;;;;;;408.02;37.30;;;2.10;99.90;;;;;;5049722;28;20118;-50
2022/12/04 04:37:02;;;;;;;326.50;36.72;;;2.10;99.90;;;;;;5049717;28;20595;-50
2022/12/04 04:39:30;;;;;;;243.77;32.15;;;2.10;99.90;;;;;;5049830;28;20050;-51
2022/12/04 04:42:01;;;;;;;302.70;39.15;;;2.10;99.90;;;;;;5049621;28;20044;-50
2022/12/04 04:44:38;;;;;;;235.15;32.42;;;2.10;99.90;;;;;;5049617;28;20408;-50
2022/12/04 04:47:08;;;;;;;345.95;37.22;;;2.10;99.90;;;;;;5049615;28;20028;-52
2022/12/04 04:49:36;;;;;;;152.45;29.25;;;2.10;99.90;;;;;;5049660;28;20627;-51
2022/12/04 04:52:02;;;;;;;195.10;33.42;;;2.10;99.90;;;;;;5049458;28;20515;-50
2022/12/04 04:54:30;;;;;;;214.40;33.22;;;2.10;99.90;;;;;;5049448;28;20041;-52
2022/12/04 04:56:56;;;;;;;122.72;29.73;;;2.00;99.90;;;;;;5049253;28;20405;-53
2022/12/04 04:59:21;;;;;;;257.30;35.88;;;2.00;99.90;;;;;;5049339;28;20096;-53
2022/12/04 05:01:47;;;;;;;169.68;29.95;;;2.00;99.90;;;;;;5049343;28;20040;-49
2022/12/04 05:04:13;;;;;;;111.40;29.48;;;2.00;99.90;;;;;;5049575;27;20029;-51
2022/12/04 05:06:39;;;;;;;73.10;29.88;;;2.00;99.90;;;;;;5049393;28;20025;-51
2022/12/04 05:09:05;;;;;;;82.28;28.02;;;2.10;99.90;;;;;;5049227;28;20158;-50
2022/12/04 05:11:30;;;;;;;94.63;28.00;;;2.10;99.90;;;;;;5049046;28;20037;-55
2022/12/04 05:13:56;;;;;;;180.65;30.95;;;2.10;99.90;;;;;;5048976;28;20137;-52
2022/12/04 05:16:22;;;;;;;94.75;27.27;;;2.10;99.90;;;;;;5049114;28;20021;-51
2022/12/04 05:21:33;;;;;;;123.28;31.33;;;2.10;99.90;;;;;;5049246;28;20537;-52
2022/12/04 05:23:58;;;;;;;202.25;31.08;;;2.10;99.90;;;;;;5048904;28;20036;-49
2022/12/04 05:26:25;;;;;;;157.35;30.92;;;2.10;99.90;;;;;;5048591;28;20025;-52
2022/12/04 05:28:50;;;;;;;128.75;32.30;;;2.10;99.90;;;;;;5049035;28;20102;-50
2022/12/04 05:31:16;;;;;;;102.70;32.90;;;2.10;99.90;;;;;;5048933;28;20042;-49
2022/12/04 05:33:42;;;;;;;120.47;31.27;;;2.10;99.90;;;;;;5048989;28;20021;-55
2022/12/04 05:36:09;;;;;;;94.78;30.95;;;2.20;99.90;;;;;;5048847;28;20048;-54
2022/12/04 05:38:35;;;;;;;77.93;33.22;;;2.20;99.90;;;;;;5048598;28;20104;-50
2022/12/04 05:41:03;;;;;;;87.78;32.30;;;2.20;99.90;;;;;;5047943;28;20032;-50
2022/12/04 05:43:29;;;;;;;63.97;30.17;;;2.20;99.90;;;;;;5048053;28;20457;-51
2022/12/04 05:46:06;;;;;;;73.63;29.55;;;2.20;99.90;;;;;;5048388;28;20043;-52
2022/12/04 05:48:34;;;;;;;71.72;29.70;;;2.20;99.90;;;;;;5047877;28;20021;-49
2022/12/04 05:51:03;;;;;;;85.68;29.23;;;2.20;99.90;;;;;;5047503;28;20050;-48
2022/12/04 05:53:29;;;;;;;54.13;28.60;;;2.20;99.90;;;;;;5048025;28;20433;-48
2022/12/04 05:56:00;;;;;;;58.40;28.95;;;2.30;99.90;;;;;;5047808;28;20036;-53
2022/12/04 05:58:26;;;;;;;60.78;28.48;;;2.30;99.90;;;;;;5048523;28;20085;-51
2022/12/04 06:00:52;;;;;;;61.25;29.90;;;2.30;99.90;;;;;;5048439;28;20025;-53
2022/12/04 06:03:18;;;;;;;58.28;28.20;;;2.30;99.90;;;;;;5048472;28;20021;-54
2022/12/04 06:05:44;;;;;;;57.03;28.63;;;2.30;99.90;;;;;;5048550;28;20093;-52
2022/12/04 06:08:09;;;;;;;56.20;28.85;;;2.30;99.90;;;;;;5048423;28;20120;-55
2022/12/04 06:10:35;;;;;;;51.22;26.33;;;2.30;99.90;;;;;;5048293;28;20037;-53
2022/12/04 06:13:00;;;;;;;62.42;30.23;;;2.30;99.90;;;;;;5048394;28;20029;-51
2022/12/04 06:15:26;;;;;;;57.85;28.50;;;2.30;99.90;;;;;;5048268;28;20061;-53
2022/12/04 06:17:52;;;;;;;64.60;29.75;;;2.40;99.90;;;;;;5047001;28;20421;-52
2022/12/04 06:20:18;;;;;;;55.83;27.02;;;2.40;99.90;;;;;;5048148;28;20025;-50
2022/12/04 06:22:43;;;;;;;59.33;28.67;;;2.40;99.90;;;;;;5048288;28;20028;-55
2022/12/04 06:25:09;;;;;;;60.47;25.10;;;2.40;99.90;;;;;;5046786;28;20736;-53
2022/12/04 06:27:35;;;;;;;46.83;25.38;;;2.40;99.90;;;;;;5048225;28;20021;-53
2022/12/04 06:30:01;;;;;;;65.22;24.58;;;2.40;99.90;;;;;;5048145;28;20433;-52
2022/12/04 06:32:26;;;;;;;89.40;27.98;;;2.30;99.90;;;;;;5046843;28;20032;-52
2022/12/04 06:34:53;;;;;;;44.50;24.83;;;2.30;99.90;;;;;;5047960;28;20025;-51
2022/12/04 06:37:21;;;;;;;55.53;27.00;;;2.30;99.90;;;;;;5049568;28;20021;-51
2022/12/04 06:39:46;;;;;;;45.95;25.88;;;2.30;99.90;;;;;;5051623;28;20017;-53
2022/12/04 06:42:12;;;;;;;37.85;22.80;;;2.30;99.90;;;;;;5050320;28;20376;-52
2022/12/04 06:44:38;;;;;;;42.67;25.25;;;2.20;99.90;;;;;;5051383;28;20104;-52
2022/12/04 06:47:04;;;;;;;42.20;24.38;;;2.20;99.90;;;;;;5051488;28;20028;-55
2022/12/04 06:49:29;;;;;;;45.13;26.55;;;2.20;99.90;;;;;;5050197;28;20112;-49
2022/12/04 06:51:55;;;;;;;55.85;29.55;;;2.20;99.90;;;;;;5051367;28;20177;-51
2022/12/04 06:54:21;;;;;;;50.25;27.20;;;2.30;99.90;;;;;;5051263;28;20773;-52
2022/12/04 06:56:48;;;;;;;45.50;27.98;;;2.30;99.90;;;;;;5051205;28;20104;-53
2022/12/04 06:59:13;;;;;;;45.75;28.35;;;2.40;99.90;;;;;;5051358;28;20017;-50
2022/12/04 07:01:39;;;;;;;43.25;27.35;;;2.40;99.90;;;;;;5051283;28;20031;-49
2022/12/04 07:04:05;;;;;;;55.40;35.78;;;2.50;99.90;;;;;;5051116;28;20027;-54
2022/12/04 07:06:35;;;;;;;50.22;29.85;;;2.60;99.90;;;;;;5051207;28;20025;-55
2022/12/04 07:09:05;;;;;;;48.42;28.83;;;2.50;99.90;;;;;;5051050;28;20492;-54
2022/12/04 07:11:31;;;;;;;46.08;28.25;;;2.60;99.90;;;;;;5051175;28;20036;-50
2022/12/04 07:13:56;;;;;;;56.97;28.67;;;2.60;99.90;;;;;;5049647;28;20468;-55
2022/12/04 07:16:24;;;;;;;51.13;28.23;;;2.60;99.90;;;;;;5051034;28;20066;-51
2022/12/04 07:18:52;;;;;;;42.45;25.90;;;2.70;99.90;;;;;;5050961;28;20464;-54
2022/12/04 07:21:20;;;;;;;173.13;107.22;;;2.70;99.90;;;;;;5050835;28;20029;-52
2022/12/04 07:23:55;;;;;;;316.10;172.35;;;2.80;99.90;;;;;;5050820;28;20593;-55
2022/12/04 07:26:22;;;;;;;225.35;124.78;;;2.90;99.90;;;;;;5050858;28;20076;-52
2022/12/04 07:28:48;;;;;;;175.57;115.28;;;2.80;99.90;;;;;;5050838;28;20025;-52
2022/12/04 07:31:19;;;;;;;169.23;106.75;;;2.90;99.90;;;;;;5050756;28;20104;-50
2022/12/04 07:33:46;;;;;;;220.43;127.88;;;2.90;99.90;;;;;;5049270;28;20119;-51
2022/12/04 07:36:15;;;;;;;103.03;59.75;;;2.90;99.90;;;;;;5050494;28;20078;-51
2022/12/04 07:38:40;;;;;;;180.68;108.22;;;2.90;99.90;;;;;;5050770;28;20029;-50
2022/12/04 07:41:08;;;;;;;246.75;138.43;;;2.90;99.90;;;;;;5050443;28;20086;-49
2022/12/04 07:43:34;;;;;;;206.27;118.70;;;3.00;99.90;;;;;;5050427;28;20021;-54
2022/12/04 07:46:06;;;;;;;148.65;91.80;;;3.00;99.90;;;;;;5050429;28;20384;-49
2022/12/04 07:48:32;;;;;;;72.68;52.25;;;3.00;99.90;;;;;;5050169;28;20033;-54
2022/12/04 07:51:06;;;;;;;45.60;29.20;;;3.00;99.90;;;;;;5050097;28;20121;-52
2022/12/04 07:53:34;;;;;;;41.80;28.15;;;3.10;99.90;;;;;;5049574;28;20037;-52
2022/12/04 07:56:00;;;;;;;39.95;26.30;;;3.10;99.90;;;;;;5049794;27;20077;-54
2022/12/04 07:58:26;;;;;;;55.05;34.92;;;3.10;99.90;;;;;;5051097;27;20337;-52
2022/12/04 08:00:51;;;;;;;64.93;43.60;;;3.20;99.90;;;;;;5050058;28;20070;-53
2022/12/04 08:03:17;;;;;;;52.00;31.90;;;3.20;99.90;;;;;;5051041;27;20069;-55
2022/12/04 08:05:43;;;;;;;72.43;48.13;;;3.30;99.90;;;;;;5050035;28;20029;-54
2022/12/04 08:08:08;;;;;;;55.88;30.60;;;3.30;99.90;;;;;;5050113;28;20036;-54
2022/12/04 08:10:34;;;;;;;44.60;31.88;;;3.40;99.90;;;;;;5050574;27;20712;-49
2022/12/04 08:13:00;;;;;;;47.78;35.15;;;3.40;99.90;;;;;;5049864;28;20041;-51
2022/12/04 08:15:25;;;;;;;31.00;22.40;;;3.40;99.90;;;;;;5050754;27;20120;-51
2022/12/04 08:17:51;;;;;;;38.95;29.20;;;3.40;99.90;;;;;;5049768;28;20101;-54
2022/12/04 08:20:16;;;;;;;33.58;24.27;;;3.40;99.90;;;;;;5050704;27;20075;-52
2022/12/04 08:22:42;;;;;;;38.63;25.02;;;3.40;99.90;;;;;;5049765;28;20737;-51
2022/12/04 08:25:08;;;;;;;38.53;26.75;;;3.40;99.90;;;;;;5050271;27;20021;-51
2022/12/04 08:27:34;;;;;;;35.38;22.55;;;3.40;99.90;;;;;;5049826;28;20029;-51
2022/12/04 08:29:59;;;;;;;33.00;24.15;;;3.40;99.90;;;;;;5050325;27;20108;-53
2022/12/04 08:32:25;;;;;;;29.00;23.38;;;3.40;99.90;;;;;;5049670;28;20031;-52
2022/12/04 08:34:51;;;;;;;31.83;23.45;;;3.40;99.90;;;;;;5050261;27;20025;-52
2022/12/04 08:37:17;;;;;;;29.38;21.20;;;3.40;99.90;;;;;;5049619;28;20464;-55
2022/12/04 08:39:42;;;;;;;37.10;24.83;;;3.40;99.90;;;;;;5050232;27;20041;-51
2022/12/04 08:42:08;;;;;;;30.95;22.55;;;3.40;99.90;;;;;;5048937;28;20040;-51
2022/12/04 08:44:34;;;;;;;35.70;23.00;;;3.50;99.90;;;;;;5050032;27;20029;-53
2022/12/04 08:46:59;;;;;;;34.72;23.23;;;3.50;99.90;;;;;;5049081;28;20115;-56
2022/12/04 08:49:25;;;;;;;31.80;22.60;;;3.50;99.90;;;;;;5049650;27;20075;-53
2022/12/04 08:51:50;;;;;;;51.33;31.50;;;3.60;99.90;;;;;;5049357;28;20631;-53
2022/12/04 08:54:16;;;;;;;42.92;30.98;;;3.60;99.90;;;;;;5049870;27;20108;-50
2022/12/04 08:56:43;;;;;;;32.90;23.15;;;3.70;99.90;;;;;;5049354;28;20025;-54
2022/12/04 08:59:11;;;;;;;30.98;22.42;;;3.70;99.90;;;;;;5049348;27;20392;-53
2022/12/04 09:01:37;;;;;;;35.13;22.85;;;3.80;99.90;;;;;;5049422;28;20035;-52
2022/12/04 09:04:02;;;;;;;31.15;23.27;;;3.90;99.90;;;;;;5049718;27;20017;-51
2022/12/04 09:06:28;;;;;;;31.67;23.77;;;4.00;99.90;;;;;;5049348;28;20013;-52
2022/12/04 09:08:55;;;;;;;31.70;23.20;;;4.10;99.90;;;;;;5049502;27;20490;-50
2022/12/04 09:11:24;;;;;;;102.57;41.70;;;4.20;99.90;;;;;;5049143;28;20045;-52
2022/12/04 09:13:51;;;;;;;40.63;30.23;;;4.30;99.90;;;;;;5049526;27;20025;-52
2022/12/04 09:16:20;;;;;;;36.40;26.02;;;4.50;99.90;;;;;;5047963;28;20078;-55
2022/12/04 09:18:46;;;;;;;27.42;22.33;;;4.60;99.90;;;;;;5049500;27;20017;-50
2022/12/04 09:21:13;;;;;;;28.42;22.90;;;4.70;99.90;;;;;;5029216;28;20398;-54
2022/12/04 09:23:39;;;;;;;24.30;18.63;;;4.80;99.90;;;;;;5029132;28;20407;-52
2022/12/04 09:26:17;;;;;;;24.50;18.25;;;5.00;99.90;;;;;;5048613;27;20037;-51
2022/12/04 09:28:43;;;;;;;23.17;17.77;;;5.10;99.90;;;;;;5048977;28;20028;-52
2022/12/04 09:31:08;;;;;;;25.80;16.75;;;5.20;99.90;;;;;;5049293;27;20032;-55
2022/12/04 09:33:34;;;;;;;27.23;18.90;;;5.20;99.90;;;;;;5048550;28;20029;-53
2022/12/04 09:36:01;;;;;;;22.48;16.38;;;5.30;99.90;;;;;;5049333;27;20499;-53
2022/12/04 09:38:27;;;;;;;22.60;16.70;;;5.50;99.90;;;;;;5048687;28;20025;-54
2022/12/04 09:40:53;;;;;;;78.05;39.20;;;5.40;99.90;;;;;;5049430;27;20032;-52
2022/12/04 09:43:28;;;;;;;70.30;35.38;;;5.30;99.90;;;;;;5048675;28;20025;-55
2022/12/04 09:46:01;;;;;;;68.80;38.85;;;5.40;99.90;;;;;;5049318;27;20033;-52
2022/12/04 09:48:33;;;;;;;40.53;27.77;;;5.40;99.90;;;;;;5048679;28;20025;-53
2022/12/04 09:51:01;;;;;;;184.43;89.28;;;5.30;99.90;;;;;;5049144;27;20711;-51
2022/12/04 09:53:36;;;;;;;27.05;18.88;;;5.30;99.90;;;;;;5048475;28;20032;-56
2022/12/04 09:56:05;;;;;;;26.65;19.00;;;5.30;99.90;;;;;;5049038;27;20029;-54
2022/12/04 09:58:57;;;;;;;24.35;18.73;;;5.30;99.90;;;;;;5048537;28;20037;-55
2022/12/04 10:01:44;;;;;;;25.52;18.65;;;5.30;99.90;;;;;;5049012;27;20017;-54
2022/12/04 10:04:10;;;;;;;27.92;20.92;;;5.30;99.90;;;;;;5048534;27;20028;-51
2022/12/04 10:06:46;;;;;;;24.30;18.40;;;5.30;99.90;;;;;;5048311;28;20028;-52
2022/12/04 10:09:19;;;;;;;25.10;20.88;;;5.40;99.90;;;;;;5048751;27;20032;-53
2022/12/04 10:11:58;;;;;;;30.50;21.52;;;5.40;99.90;;;;;;5048728;28;20407;-54
2022/12/04 10:14:39;;;;;;;37.95;26.58;;;5.30;99.90;;;;;;5051327;27;20026;-54
2022/12/04 10:17:45;;;;;;;25.75;20.63;;;5.30;99.90;;;;;;5050612;28;20021;-54
2022/12/04 10:20:43;;;;;;;28.67;21.30;;;5.40;99.90;;;;;;5013527;28;20042;-52
2022/12/04 10:23:43;;;;;;;26.45;19.65;;;5.30;99.90;;;;;;5027464;28;20029;-51
2022/12/04 10:26:14;;;;;;;25.08;19.08;;;5.40;99.90;;;;;;5050894;27;20489;-52
2022/12/04 10:28:52;;;;;;;27.20;20.60;;;5.40;99.90;;;;;;5049362;28;20021;-50
2022/12/04 10:31:18;;;;;;;28.33;20.67;;;5.40;99.90;;;;;;5050971;27;20025;-52
2022/12/04 10:33:50;;;;;;;28.20;21.17;;;5.50;99.90;;;;;;5050501;28;20025;-52
2022/12/04 10:36:20;;;;;;;24.47;19.70;;;5.50;99.90;;;;;;5051667;27;20033;-56
2022/12/04 10:38:54;;;;;;;26.67;19.52;;;5.60;99.90;;;;;;5051709;27;20063;-55
2022/12/04 10:41:32;;;;;;;27.85;19.27;;;5.60;99.90;;;;;;5051602;27;20058;-52
2022/12/04 10:43:58;;;;;;;25.73;19.77;;;5.70;99.90;;;;;;5051310;28;20367;-54
2022/12/04 10:46:30;;;;;;;29.67;19.23;;;5.80;99.90;;;;;;5051960;27;20021;-53
2022/12/04 10:49:13;;;;;;;26.77;19.33;;;5.90;99.90;;;;;;5051241;28;20113;-52
2022/12/04 10:51:41;;;;;;;29.08;19.67;;;5.90;99.90;;;;;;5051999;27;20452;-53
2022/12/04 10:54:25;;;;;;;24.00;19.58;;;6.00;99.90;;;;;;5051053;28;20833;-51
2022/12/04 10:56:56;;;;;;;23.73;18.27;;;6.00;99.90;;;;;;5050341;28;20021;-49
2022/12/04 10:59:23;;;;;;;24.15;19.25;;;6.00;99.90;;;;;;5050474;28;20025;-54
2022/12/04 11:01:50;;;;;;;23.15;18.25;;;6.00;99.90;;;;;;5051178;27;20025;-55
2022/12/04 11:04:23;;;;;;;23.17;19.42;;;6.10;99.90;;;;;;5050354;27;20044;-53
2022/12/04 11:06:50;;;;;;;25.63;18.92;;;6.20;99.90;;;;;;5050737;27;20356;-54
2022/12/04 11:09:23;;;;;;;23.33;18.88;;;6.10;99.90;;;;;;5050585;28;20032;-54
2022/12/04 11:11:49;;;;;;;33.08;19.05;;;6.10;99.90;;;;;;5050627;27;20041;-55
2022/12/04 11:14:20;;;;;;;22.80;18.27;;;6.10;99.90;;;;;;5050963;28;20081;-53
2022/12/04 11:17:01;;;;;;;23.83;17.50;;;6.10;99.90;;;;;;5051558;27;20056;-53
2022/12/04 11:19:30;;;;;;;22.80;19.33;;;6.20;99.90;;;;;;5050934;28;20029;-51
2022/12/04 11:22:09;;;;;;;23.60;18.52;;;6.10;99.90;;;;;;5051099;27;20104;-51
2022/12/04 11:24:37;;;;;;;27.00;20.25;;;6.20;99.90;;;;;;5049450;28;20028;-52
2022/12/04 11:27:05;;;;;;;25.20;19.33;;;6.20;99.90;;;;;;5050911;28;20463;-53
2022/12/04 11:29:40;;;;;;;25.33;19.38;;;6.20;99.90;;;;;;5050855;28;20061;-52
2022/12/04 11:32:13;;;;;;;27.90;18.35;;;6.20;99.90;;;;;;5049356;28;20078;-54
2022/12/04 11:34:39;;;;;;;;;;;6.30;99.90;;;;;;5051268;28;20040;-56
2022/12/04 11:37:14;;;;;;;21.20;17.13;;;6.20;99.90;;;;;;5034652;27;19908;-54
2022/12/04 11:39:40;;;;;;;22.48;17.80;;;6.20;99.90;;;;;;5038007;28;20398;-54
2022/12/04 11:42:12;;;;;;;24.73;19.05;;;6.20;99.90;;;;;;5037826;28;20033;-52
2022/12/04 11:44:39;;;;;;;22.15;17.92;;;6.20;99.90;;;;;;5039636;27;20031;-52
2022/12/04 11:47:14;;;;;;;24.30;18.13;;;6.20;99.90;;;;;;5038425;27;20488;-53
2022/12/04 11:49:41;;;;;;;22.15;17.88;;;6.20;99.90;;;;;;5039835;28;20040;-55
2022/12/04 11:52:22;;;;;;;22.05;18.17;;;6.20;99.90;;;;;;5019299;28;20033;-53
2022/12/04 11:55:00;;;;;;;25.30;19.23;;;6.20;99.90;;;;;;5039264;28;20032;-55
2022/12/04 11:57:56;;;;;;;23.40;18.05;;;6.20;99.90;;;;;;5038958;28;20029;-53
2022/12/04 12:00:22;;;;;;;23.13;17.95;;;6.10;99.90;;;;;;5028803;27;20048;-50
2022/12/04 12:03:13;;;;;;;20.67;17.08;;;6.10;99.90;;;;;;5039286;27;20017;-54
2022/12/04 12:05:59;;;;;;;25.38;20.30;;;6.10;99.90;;;;;;5018994;28;20033;-52
2022/12/04 12:08:45;;;;;;;24.88;19.05;;;6.10;99.90;;;;;;5037225;27;20090;-52
2022/12/04 12:11:26;;;;;;;26.58;19.20;;;6.10;99.90;;;;;;5038117;28;20059;-52
2022/12/04 12:14:01;;;;;;;24.58;19.15;;;6.10;99.90;;;;;;5039412;28;20036;-57
2022/12/04 12:17:01;;;;;;;23.67;17.30;;;6.10;99.90;;;;;;5039094;27;20041;-51
2022/12/04 12:19:51;;;;;;;28.88;18.42;;;6.10;99.90;;;;;;5018973;27;20045;-52
2022/12/04 12:22:44;;;;;;;23.92;18.60;;;6.00;99.90;;;;;;5038109;28;20039;-55
2022/12/04 12:25:28;;;;;;;28.42;19.65;;;6.10;99.90;;;;;;5038631;28;20033;-54
2022/12/04 12:28:09;;;;;;;22.05;17.75;;;6.10;99.90;;;;;;5038936;28;20083;-52
2022/12/04 12:31:09;;;;;;;21.40;17.25;;;6.10;99.90;;;;;;5038794;28;20037;-53
2022/12/04 12:33:45;;;;;;;20.95;17.35;;;6.10;99.90;;;;;;5038708;28;20040;-54
2022/12/04 12:36:13;;;;;;;41.33;27.63;;;6.20;99.90;;;;;;5037934;27;20025;-55
2022/12/04 12:38:55;;;;;;;43.55;29.20;;;6.20;99.90;;;;;;5030515;28;20091;-57
2022/12/04 12:41:25;;;;;;;26.60;21.10;;;6.20;99.90;;;;;;5038381;28;20036;-55
2022/12/04 12:44:03;;;;;;;24.95;19.63;;;6.20;99.90;;;;;;5037985;27;20077;-53
2022/12/04 12:46:40;;;;;;;27.27;21.08;;;6.20;99.90;;;;;;5038544;27;20036;-55
2022/12/04 12:49:17;;;;;;;28.75;20.40;;;6.20;99.90;;;;;;5039047;28;20025;-58
2022/12/04 12:52:06;;;;;;;26.08;19.83;;;6.20;99.90;;;;;;5039147;27;20028;-55
2022/12/04 12:54:38;;;;;;;23.23;18.10;;;6.30;99.90;;;;;;5024030;27;20097;-56
2022/12/04 12:57:29;;;;;;;22.75;18.33;;;6.30;99.90;;;;;;5027213;27;20053;-53
2022/12/04 13:00:01;;;;;;;22.63;18.67;;;6.20;99.90;;;;;;5038503;28;20021;-54
2022/12/04 13:02:40;;;;;;;23.73;17.98;;;6.30;99.90;;;;;;5038796;27;20401;-55
2022/12/04 13:05:09;;;;;;;22.73;18.10;;;6.20;99.90;;;;;;5038512;28;20032;-52